Time;durP1;ratioP1;P1;durP2;ratioP2;P2;SDS_P1;SDS_P2;PMS_P1;PMS_P2;Temp;Humidity;BMP_temperature;BMP_pressure;BME280_temperature;BME280_humidity;BME280_pressure;Samples;Min_cycle;Max_cycle;Signal;HPM_P1;HPM_P2
2021/04/21 00:02:21;;;;;;;6.20;3.70;;;;;;;2.38;89.75;100734.13;4932598;29;20458;-79
2021/04/21 00:04:49;;;;;;;6.67;3.93;;;;;;;2.39;89.50;100727.19;4916555;29;20047;-79
2021/04/21 00:07:16;;;;;;;7.80;4.03;;;;;;;2.31;89.47;100731.41;4933347;29;20685;-79
2021/04/21 00:09:44;;;;;;;7.23;4.00;;;;;;;2.35;90.41;100727.97;4932735;29;20040;-79
2021/04/21 00:12:10;;;;;;;5.83;3.73;;;;;;;2.20;90.53;100726.91;4933319;29;20043;-79
2021/04/21 00:14:37;;;;;;;6.57;4.13;;;;;;;2.15;90.52;100718.16;4932473;29;20097;-79
2021/04/21 00:17:04;;;;;;;4.77;3.63;;;;;;;2.15;89.93;100717.28;4932770;29;20052;-79
2021/04/21 00:19:34;;;;;;;5.73;3.87;;;;;;;2.10;90.87;100722.44;4898631;29;20040;-79
2021/04/21 00:22:02;;;;;;;8.40;4.00;;;;;;;2.11;90.74;100718.97;4941872;28;20063;-79
2021/04/21 00:24:33;;;;;;;6.20;3.67;;;;;;;1.91;91.44;100721.25;4932801;29;20103;-79
2021/04/21 00:26:59;;;;;;;6.07;3.10;;;;;;;1.83;91.78;100714.19;4930601;29;20055;-78
2021/04/21 00:29:26;;;;;;;7.10;4.20;;;;;;;1.76;92.50;100722.75;4930662;29;20067;-79
2021/04/21 00:31:53;;;;;;;7.03;3.60;;;;;;;1.75;92.43;100723.59;4944517;29;20075;-79
2021/04/21 00:34:20;;;;;;;7.07;3.87;;;;;;;1.68;92.72;100713.09;4932756;29;20055;-78
2021/04/21 00:36:49;;;;;;;6.90;4.53;;;;;;;1.64;93.28;100728.63;4932810;29;20063;-79
2021/04/21 00:39:17;;;;;;;5.13;3.77;;;;;;;1.63;92.81;100725.16;4932544;29;20099;-79
2021/04/21 00:42:04;;;;;;;5.47;3.37;;;;;;;1.60;93.21;100719.03;4901647;29;20055;-80
2021/04/21 00:44:43;;;;;;;6.80;3.60;;;;;;;1.56;92.86;100715.47;4913611;29;20048;-80
2021/04/21 00:47:15;;;;;;;4.83;3.83;;;;;;;1.51;93.48;100721.44;4905054;29;20502;-80
2021/04/21 00:49:50;;;;;;;7.67;3.50;;;;;;;1.42;93.55;100715.22;4932962;29;20109;-79
2021/04/21 00:52:27;;;;;;;6.17;3.57;;;;;;;1.39;93.98;100712.59;4933057;29;20043;-79
2021/04/21 00:55:03;;;;;;;7.10;4.20;;;;;;;1.43;94.20;100710.94;4929774;29;20047;-79
2021/04/21 00:57:53;;;;;;;6.87;4.93;;;;;;;1.43;93.25;100718.75;4930174;29;20412;-79
2021/04/21 01:00:27;;;;;;;5.20;3.50;;;;;;;1.39;93.09;100714.31;4932485;29;20044;-79
2021/04/21 01:02:56;;;;;;;4.88;3.90;;;;;;;1.41;93.09;100712.59;4932709;29;20044;-80
2021/04/21 01:05:26;;;;;;;6.40;4.10;;;;;;;1.40;92.78;100703.06;4930981;29;20056;-78
2021/04/21 01:07:55;;;;;;;6.10;3.80;;;;;;;1.33;93.01;100717.69;4931955;29;20429;-78
2021/04/21 01:10:23;;;;;;;6.47;4.10;;;;;;;1.29;93.29;100713.28;4915512;29;20723;-78
2021/04/21 01:12:51;;;;;;;8.03;4.00;;;;;;;1.26;93.75;100708.03;4931640;29;20062;-78
2021/04/21 01:15:18;;;;;;;7.37;3.90;;;;;;;1.17;94.43;100710.44;4914913;29;20068;-79
2021/04/21 01:17:46;;;;;;;5.77;3.50;;;;;;;1.16;94.75;100708.69;4930760;29;20044;-79
2021/04/21 01:20:17;;;;;;;7.00;3.87;;;;;;;1.12;94.33;100709.50;4947185;29;20437;-78
2021/04/21 01:22:47;;;;;;;5.43;3.60;;;;;;;1.17;93.93;100701.75;4945174;29;20055;-80
2021/04/21 01:25:18;;;;;;;5.53;3.80;;;;;;;1.13;94.35;100703.44;4931722;29;20040;-79
2021/04/21 01:27:53;;;;;;;4.93;3.60;;;;;;;1.17;94.32;100704.38;4931433;29;20076;-79
2021/04/21 01:30:22;;;;;;;5.83;3.90;;;;;;;1.11;93.99;100703.41;4931986;29;20493;-79
2021/04/21 01:32:50;;;;;;;6.30;3.80;;;;;;;1.01;94.40;100704.09;4931813;29;20044;-79
2021/04/21 01:35:19;;;;;;;4.70;3.47;;;;;;;0.91;94.81;100704.75;4931192;29;20135;-79
2021/04/21 01:37:46;;;;;;;6.73;3.97;;;;;;;0.86;95.23;100701.22;4931645;29;20445;-79
2021/04/21 01:40:20;;;;;;;7.93;4.23;;;;;;;0.82;95.10;100699.38;4932201;29;20042;-79
2021/04/21 01:42:55;;;;;;;7.45;4.25;;;;;;;0.81;94.81;100695.91;4931181;29;20446;-78
2021/04/21 01:45:26;;;;;;;5.37;4.27;;;;;;;0.88;95.09;100701.22;4926506;29;20402;-79
2021/04/21 01:47:54;;;;;;;5.70;3.93;;;;;;;0.77;95.65;100691.50;4927343;29;20104;-80
2021/04/21 01:50:20;;;;;;;6.93;4.13;;;;;;;0.79;95.70;100694.13;4930483;29;20055;-79
2021/04/21 01:53:02;;;;;;;5.83;4.27;;;;;;;0.78;95.18;100695.84;4931149;29;20548;-79
2021/04/21 01:56:22;;;;;;;5.80;3.67;;;;;;;0.67;95.66;100697.34;4929375;29;20076;-78
2021/04/21 01:59:16;;;;;;;8.17;4.43;;;;;;;0.61;95.30;100699.84;4914587;29;20044;-79
2021/04/21 02:01:46;;;;;;;6.57;3.90;;;;;;;0.57;95.99;100700.59;4915233;29;20048;-79
2021/04/21 02:04:28;;;;;;;6.70;3.93;;;;;;;0.49;96.76;100691.78;4913627;29;20051;-78
2021/04/21 02:07:00;;;;;;;6.97;3.93;;;;;;;0.43;96.72;100695.16;4932677;29;20054;-79
2021/04/21 02:09:49;;;;;;;7.90;4.30;;;;;;;0.42;96.65;100692.47;4949022;29;20051;-79
2021/04/21 02:12:30;;;;;;;6.87;3.83;;;;;;;0.40;96.48;100683.78;4934181;29;20101;-79
2021/04/21 02:15:18;;;;;;;7.37;3.80;;;;;;;0.45;95.63;100685.66;4992114;23;20036;-86
2021/04/21 02:17:52;;;;;;;7.17;4.07;;;;;;;0.43;95.64;100700.34;4973801;28;20045;-83
2021/04/21 02:20:24;;;;;;;6.30;3.58;;;;;;;0.32;96.49;100699.22;4973891;28;20058;-83
2021/04/21 02:23:28;;;;;;;7.07;4.37;;;;;;;0.27;96.44;100691.34;4972969;28;20426;-83
2021/04/21 02:26:04;;;;;;;7.20;3.70;;;;;;;0.34;96.27;100697.56;4977749;28;20053;-83
2021/04/21 02:28:51;;;;;;;6.63;3.87;;;;;;;0.31;95.39;100687.06;4975705;28;20046;-83
2021/04/21 02:31:34;;;;;;;6.27;3.90;;;;;;;0.17;96.03;100694.59;4984768;28;20042;-83
2021/04/21 02:34:24;;;;;;;7.13;3.33;;;;;;;0.16;96.55;100692.81;4959160;28;20047;-83
2021/04/21 02:37:07;;;;;;;8.10;4.20;;;;;;;0.10;96.86;100694.41;4975627;28;20043;-83
2021/04/21 02:39:51;;;;;;;5.47;3.87;;;;;;;0.11;96.85;100696.16;4968093;28;20042;-84
2021/04/21 02:42:29;;;;;;;6.47;3.67;;;;;;;0.08;97.50;100696.06;4992686;28;20038;-83
2021/04/21 02:45:11;;;;;;;9.30;4.00;;;;;;;0.09;97.63;100688.34;4957004;28;21522;-83
2021/04/21 02:47:50;;;;;;;5.80;4.00;;;;;;;0.08;97.54;100690.88;4959859;28;20038;-84
2021/04/21 02:50:22;;;;;;;5.57;4.30;;;;;;;0.07;97.41;100692.59;4960575;28;20046;-83
2021/04/21 02:52:56;;;;;;;7.70;3.57;;;;;;;0.04;97.08;100692.53;4957327;28;20067;-84
2021/04/21 02:55:38;;;;;;;4.60;3.40;;;;;;;0.02;97.41;100693.38;4958705;28;20058;-84
2021/04/21 02:58:08;;;;;;;6.83;4.17;;;;;;;0.05;97.95;100696.91;4960868;28;20041;-81
2021/04/21 03:00:43;;;;;;;7.87;4.53;;;;;;;-0.03;98.13;100681.13;4972861;28;20046;-83
2021/04/21 03:03:38;;;;;;;5.17;3.70;;;;;;;-0.07;98.47;100688.84;4959099;28;20052;-83
2021/04/21 03:06:10;;;;;;;6.63;3.63;;;;;;;-0.05;98.57;100684.56;4970278;28;20527;-82
2021/04/21 03:08:42;;;;;;;6.10;3.53;;;;;;;-0.06;97.96;100683.69;4958307;28;20042;-83
2021/04/21 03:11:12;;;;;;;5.83;3.63;;;;;;;-0.04;97.86;100681.97;4973023;28;20093;-83
2021/04/21 03:13:57;;;;;;;6.10;3.60;;;;;;;-0.08;96.93;100684.50;4970770;28;20057;-83
2021/04/21 03:16:25;;;;;;;5.53;3.80;;;;;;;-0.12;97.11;100677.47;5005250;28;20046;-83
2021/04/21 03:18:53;;;;;;;7.43;3.70;;;;;;;-0.11;96.77;100682.69;4973463;28;20046;-83
2021/04/21 03:21:25;;;;;;;5.23;3.30;;;;;;;-0.11;96.55;100677.50;4960444;28;20261;-84
2021/04/21 03:23:57;;;;;;;8.27;4.27;;;;;;;-0.18;96.37;100683.38;4974120;28;20518;-84
2021/04/21 03:26:24;;;;;;;5.43;4.00;;;;;;;-0.23;96.64;100685.00;4958001;28;20050;-82
2021/04/21 03:28:55;;;;;;;6.40;4.03;;;;;;;-0.22;96.69;100676.38;4960050;28;20050;-84
2021/04/21 03:31:22;;;;;;;7.70;5.07;;;;;;;-0.30;97.35;100681.38;4956118;28;20042;-83
2021/04/21 03:33:54;;;;;;;6.20;3.50;;;;;;;-0.34;97.33;100676.06;4957045;28;20049;-83
2021/04/21 03:36:21;;;;;;;6.43;4.30;;;;;;;-0.29;96.86;100675.34;4958616;28;20053;-84
2021/04/21 03:38:48;;;;;;;6.03;4.00;;;;;;;-0.36;97.09;100680.34;4955840;28;20475;-83
2021/04/21 03:41:14;;;;;;;6.10;3.90;;;;;;;-0.44;98.07;100687.06;4956940;28;20046;-84
2021/04/21 03:43:42;;;;;;;5.70;4.10;;;;;;;-0.47;97.59;100685.28;4957932;28;20057;-86
2021/04/21 03:46:10;;;;;;;7.33;4.00;;;;;;;-0.50;98.07;100692.16;4964051;28;20510;-87
2021/04/21 03:48:37;;;;;;;7.93;3.93;;;;;;;-0.51;98.28;100687.75;4951968;28;20621;-83
2021/04/21 03:51:05;;;;;;;5.37;3.70;;;;;;;-0.52;99.12;100686.88;4959605;28;20069;-83
2021/04/21 03:53:36;;;;;;;6.33;3.50;;;;;;;-0.51;98.89;100690.34;4971423;28;20077;-85
2021/04/21 03:56:04;;;;;;;7.80;3.40;;;;;;;-0.52;98.63;100683.41;4959782;28;20042;-84
2021/04/21 03:58:31;;;;;;;6.17;3.80;;;;;;;-0.51;99.08;100677.38;4975533;28;20097;-84
2021/04/21 04:01:12;;;;;;;8.27;3.93;;;;;;;-0.49;98.34;100680.91;4958035;28;20046;-84
2021/04/21 04:03:39;;;;;;;7.23;4.17;;;;;;;-0.50;98.51;100692.16;4973792;28;20104;-85
2021/04/21 04:06:17;;;;;;;6.10;3.80;;;;;;;-0.49;98.24;100686.97;4958293;28;20046;-84
2021/04/21 04:08:54;;;;;;;6.17;4.60;;;;;;;-0.47;97.83;100685.28;4956373;28;20046;-85
2021/04/21 04:11:25;;;;;;;5.97;4.03;;;;;;;-0.47;97.53;100685.28;4956812;28;20038;-84
2021/04/21 04:13:57;;;;;;;6.13;3.60;;;;;;;-0.51;98.22;100683.44;4970620;28;20105;-84
2021/04/21 04:16:23;;;;;;;8.10;4.07;;;;;;;-0.49;99.16;100686.09;4947222;28;20042;-84
2021/04/21 04:18:51;;;;;;;6.20;3.77;;;;;;;-0.48;99.17;100683.53;4951410;28;20437;-84
2021/04/21 04:21:18;;;;;;;6.77;3.87;;;;;;;-0.43;98.21;100686.22;4975581;28;20049;-84
2021/04/21 04:23:45;;;;;;;7.60;4.17;;;;;;;-0.38;98.30;100680.31;4957963;28;20532;-86
2021/04/21 04:26:12;;;;;;;7.60;4.00;;;;;;;-0.43;98.34;100681.91;4957174;28;20086;-84
2021/04/21 04:28:39;;;;;;;8.33;4.57;;;;;;;-0.43;98.59;100684.50;4956974;28;20053;-84
2021/04/21 04:31:07;;;;;;;6.97;4.57;;;;;;;-0.41;98.24;100679.38;4971833;28;20042;-83
2021/04/21 04:33:33;;;;;;;7.67;4.47;;;;;;;-0.39;98.12;100690.69;4955624;28;20057;-84
2021/04/21 04:35:59;;;;;;;7.13;4.50;;;;;;;-0.38;98.31;100687.22;4955909;28;20049;-83
2021/04/21 04:38:26;;;;;;;6.83;4.40;;;;;;;-0.35;98.24;100688.16;4961239;28;20101;-83
2021/04/21 04:40:53;;;;;;;5.97;4.47;;;;;;;-0.31;98.75;100691.72;4955655;28;20038;-83
2021/04/21 04:43:23;;;;;;;7.77;3.80;;;;;;;-0.28;98.36;100690.06;4967886;28;20050;-84
2021/04/21 04:45:56;;;;;;;6.40;4.77;;;;;;;-0.25;97.14;100691.91;4974019;28;20110;-83
2021/04/21 04:48:30;;;;;;;5.70;4.30;;;;;;;-0.24;97.81;100683.25;4973346;28;20057;-83
2021/04/21 04:51:00;;;;;;;8.63;3.97;;;;;;;-0.18;97.50;100687.69;4954911;28;20050;-84
2021/04/21 04:53:28;;;;;;;5.10;3.53;;;;;;;-0.20;98.61;100690.25;4988312;28;20606;-83
2021/04/21 04:55:56;;;;;;;7.30;4.70;;;;;;;-0.16;98.80;100686.03;4955450;28;20507;-84
2021/04/21 04:58:26;;;;;;;6.47;3.77;;;;;;;-0.09;99.09;100685.31;4956255;28;20046;-82
2021/04/21 05:00:56;;;;;;;11.80;4.20;;;;;;;-0.06;98.90;100688.88;4992363;28;20041;-83
2021/04/21 05:03:23;;;;;;;6.60;4.40;;;;;;;-0.02;99.85;100693.28;4962211;28;20045;-84
2021/04/21 05:05:53;;;;;;;7.53;4.50;;;;;;;0.06;99.49;100689.97;4975648;28;20042;-83
2021/04/21 05:08:21;;;;;;;6.57;4.40;;;;;;;0.08;99.54;100686.56;4958107;28;20500;-84
2021/04/21 05:10:58;;;;;;;7.10;4.20;;;;;;;0.16;99.84;100694.53;4970103;28;20053;-85
2021/04/21 05:13:28;;;;;;;6.30;3.90;;;;;;;0.23;100.00;100688.63;4953619;28;20065;-86
2021/04/21 05:15:57;;;;;;;9.80;4.70;;;;;;;0.32;99.89;100687.94;4952661;28;20034;-86
2021/04/21 05:18:25;;;;;;;6.63;4.33;;;;;;;0.36;100.00;100682.00;4960684;28;20081;-86
2021/04/21 05:20:54;;;;;;;6.47;4.13;;;;;;;0.44;99.36;100690.81;4972606;28;20042;-86
2021/04/21 05:23:36;;;;;;;8.80;4.80;;;;;;;0.48;100.00;100688.31;4988202;28;20050;-83
2021/04/21 05:26:27;;;;;;;6.43;4.10;;;;;;;0.55;100.00;100695.38;4973096;28;20042;-84
2021/04/21 05:29:05;;;;;;;5.43;3.90;;;;;;;0.64;99.92;100694.69;4953962;28;20555;-85
2021/04/21 05:32:03;;;;;;;7.87;4.17;;;;;;;0.69;99.55;100692.19;4986596;28;20049;-85
2021/04/21 05:34:47;;;;;;;9.03;4.90;;;;;;;0.84;100.00;100695.97;4971481;28;20046;-85
2021/04/21 05:37:48;;;;;;;7.00;4.80;;;;;;;1.20;97.28;100700.13;4992769;28;20058;-86
2021/04/21 05:40:50;;;;;;;8.30;5.38;;;;;;;1.19;95.98;100700.09;4990048;28;20059;-85
2021/04/21 05:43:37;;;;;;;8.00;4.73;;;;;;;1.31;97.05;100697.69;4976489;28;20046;-86
2021/04/21 05:46:32;;;;;;;9.63;4.90;;;;;;;1.30;97.75;100691.59;4971190;28;20552;-85
2021/04/21 05:49:35;;;;;;;7.53;4.72;;;;;;;1.30;98.96;100696.81;4974201;28;20162;-85
2021/04/21 05:52:31;;;;;;;9.03;5.23;;;;;;;1.40;99.28;100688.31;5004167;28;20487;-86
2021/04/21 05:55:27;;;;;;;7.73;4.40;;;;;;;1.42;100.00;100689.19;4958262;28;20046;-85
2021/04/21 05:58:33;;;;;;;8.10;4.70;;;;;;;1.45;100.00;100693.59;5003041;28;20050;-86
2021/04/21 06:01:22;;;;;;;10.05;5.88;;;;;;;1.57;100.00;100692.94;4989617;28;20133;-85
2021/04/21 06:03:51;;;;;;;9.97;5.27;;;;;;;1.72;100.00;100697.50;4973829;28;20739;-85
2021/04/21 06:06:17;;;;;;;9.77;4.80;;;;;;;1.80;100.00;100690.69;4975997;28;20454;-85
2021/04/21 06:08:44;;;;;;;6.73;4.93;;;;;;;1.90;100.00;100692.59;4972634;28;20621;-87
2021/04/21 06:11:26;;;;;;;7.67;4.87;;;;;;;2.16;100.00;100690.34;4957547;28;20451;-83
2021/04/21 06:13:57;;;;;;;10.93;5.43;;;;;;;2.43;100.00;100695.06;4956515;28;20050;-84
2021/04/21 06:16:26;;;;;;;10.57;5.40;;;;;;;2.48;100.00;100691.66;5005896;28;20054;-83
2021/04/21 06:18:57;;;;;;;9.57;5.77;;;;;;;2.76;100.00;100686.78;4975061;28;20288;-85
2021/04/21 06:21:25;;;;;;;8.80;5.63;;;;;;;2.96;100.00;100687.88;4957634;28;20046;-84
2021/04/21 06:23:55;;;;;;;10.47;6.40;;;;;;;3.34;100.00;100687.38;4990976;28;20046;-83
2021/04/21 06:26:24;;;;;;;6.10;4.77;;;;;;;4.76;100.00;100681.31;4974826;28;20105;-84
2021/04/21 06:29:08;;;;;;;8.07;5.03;;;;;;;6.91;87.66;100682.06;4971132;28;20065;-86
2021/04/21 06:31:47;;;;;;;5.82;4.40;;;;;;;8.54;75.59;100662.25;4973133;28;20038;-85
2021/04/21 06:34:14;;;;;;;9.97;4.67;;;;;;;9.43;71.76;100679.50;4957309;28;20042;-85
2021/04/21 06:36:49;;;;;;;7.45;4.30;;;;;;;10.60;68.07;100672.13;4988049;28;20734;-85
2021/04/21 06:39:18;;;;;;;6.22;4.55;;;;;;;11.05;65.19;100672.06;5004910;28;20046;-85
2021/04/21 06:41:45;;;;;;;7.95;6.45;;;;;;;11.40;63.77;100667.72;4959518;28;20046;-86
2021/04/21 06:44:14;;;;;;;6.55;5.88;;;;;;;11.70;61.29;100669.66;4958497;28;20042;-85
2021/04/21 06:46:41;;;;;;;8.05;6.13;;;;;;;12.46;60.64;100666.78;4958623;28;20053;-85
2021/04/21 06:49:07;;;;;;;7.85;5.25;;;;;;;12.79;58.17;100657.00;4954951;28;20043;-85
2021/04/21 06:51:35;;;;;;;7.88;4.72;;;;;;;12.82;56.37;100667.50;4956840;28;20057;-85
2021/04/21 06:54:05;;;;;;;10.23;5.30;;;;;;;13.00;55.78;100667.84;4975511;28;20042;-85
2021/04/21 06:56:34;;;;;;;8.20;5.25;;;;;;;12.41;53.21;100666.03;4973238;28;20496;-85
2021/04/21 06:59:01;;;;;;;6.90;4.32;;;;;;;12.79;57.15;100672.03;4974747;28;20050;-85
2021/04/21 07:01:30;;;;;;;7.35;4.50;;;;;;;12.92;55.17;100676.91;4958792;28;20073;-85
2021/04/21 07:04:09;;;;;;;6.05;4.60;;;;;;;12.92;54.76;100663.66;4959147;28;20053;-85
2021/04/21 07:06:35;;;;;;;6.72;4.28;;;;;;;13.00;55.53;100670.50;4993810;28;20042;-84
2021/04/21 07:09:14;;;;;;;8.55;4.68;;;;;;;11.75;54.26;100675.66;4975392;28;20106;-85
2021/04/21 07:11:44;;;;;;;9.13;4.88;;;;;;;12.34;57.84;100670.63;4960448;28;20500;-85
2021/04/21 07:14:11;;;;;;;6.45;4.60;;;;;;;12.66;57.24;100671.50;4961045;28;20046;-84
2021/04/21 07:16:40;;;;;;;6.65;4.45;;;;;;;12.86;56.58;100670.91;4989792;28;20050;-85
2021/04/21 07:19:10;;;;;;;6.22;4.25;;;;;;;12.94;55.18;100667.09;4961997;28;20657;-84
2021/04/21 07:21:40;;;;;;;5.75;4.65;;;;;;;13.02;54.76;100669.53;4974352;28;20073;-84
2021/04/21 07:24:11;;;;;;;6.05;4.10;;;;;;;13.07;52.22;100667.63;4957534;28;20750;-84
2021/04/21 07:26:45;;;;;;;6.28;4.25;;;;;;;13.08;53.90;100669.34;4961166;28;20052;-84
2021/04/21 07:29:22;;;;;;;7.55;4.88;;;;;;;13.25;54.49;100660.91;4959682;28;20102;-85
2021/04/21 07:31:49;;;;;;;6.50;4.03;;;;;;;13.41;53.49;100666.59;4974199;28;20046;-84
2021/04/21 07:34:34;;;;;;;7.97;5.30;;;;;;;13.46;53.50;100670.84;4967159;28;20495;-84
2021/04/21 07:37:02;;;;;;;7.55;4.90;;;;;;;13.50;52.41;100667.16;4977171;28;20149;-84
2021/04/21 07:39:39;;;;;;;6.38;4.32;;;;;;;13.53;49.31;100671.50;4973788;28;20046;-84
2021/04/21 07:42:15;;;;;;;5.80;3.90;;;;;;;13.48;52.39;100669.00;4986745;28;20249;-84
2021/04/21 07:44:54;;;;;;;12.02;4.82;;;;;;;13.57;50.39;100665.19;4974841;28;20055;-85
2021/04/21 07:47:25;;;;;;;5.30;3.58;;;;;;;13.79;51.99;100660.03;4982993;28;20042;-83
2021/04/21 07:49:58;;;;;;;8.50;4.13;;;;;;;13.94;52.56;100670.13;4976147;28;20476;-82
2021/04/21 07:52:32;;;;;;;8.65;4.60;;;;;;;14.12;52.03;100668.63;4976305;28;20070;-85
2021/04/21 07:55:07;;;;;;;5.63;3.85;;;;;;;14.09;50.66;100663.41;4972441;28;20489;-84
2021/04/21 07:57:33;;;;;;;6.90;4.35;;;;;;;14.22;49.49;100663.88;4973300;28;20038;-85
2021/04/21 08:00:00;;;;;;;8.50;4.45;;;;;;;14.36;51.74;100673.06;4962778;28;20078;-86
2021/04/21 08:02:30;;;;;;;6.03;4.40;;;;;;;14.34;49.77;100666.09;4961540;28;20532;-85
2021/04/21 08:05:10;;;;;;;7.10;4.10;;;;;;;14.33;48.79;100667.88;4962808;28;20057;-87
2021/04/21 08:07:40;;;;;;;6.20;4.35;;;;;;;14.41;48.87;100661.41;4971517;28;20467;-83
2021/04/21 08:10:08;;;;;;;7.88;4.38;;;;;;;14.53;49.69;100666.31;4958565;28;20089;-83
2021/04/21 08:12:36;;;;;;;7.78;4.60;;;;;;;14.57;48.33;100667.94;4959930;28;20050;-84
2021/04/21 08:15:05;;;;;;;7.20;4.40;;;;;;;14.47;47.85;100669.22;4958720;28;20074;-84
2021/04/21 08:17:52;;;;;;;7.20;4.60;;;;;;;13.67;46.52;100671.94;4960886;28;20042;-85
2021/04/21 08:20:33;;;;;;;6.80;4.32;;;;;;;14.06;47.32;100666.19;4961392;28;20519;-84
2021/04/21 08:23:21;;;;;;;6.10;3.78;;;;;;;14.26;48.17;100669.00;4973078;28;20499;-85
2021/04/21 08:25:48;;;;;;;7.72;4.47;;;;;;;14.21;45.64;100664.78;4971592;28;20395;-85
2021/04/21 08:28:15;;;;;;;6.30;4.35;;;;;;;14.05;45.48;100657.38;4962175;28;20042;-83
2021/04/21 08:30:56;;;;;;;5.45;3.72;;;;;;;14.16;46.16;100661.44;4976641;28;20050;-84
2021/04/21 08:33:26;;;;;;;7.90;4.60;;;;;;;13.96;42.36;100651.50;4989678;23;20068;-79
2021/04/21 08:35:52;;;;;;;4.97;4.10;;;;;;;14.26;43.68;100655.72;4967985;28;20042;-79
2021/04/21 08:38:18;;;;;;;6.70;4.53;;;;;;;14.31;45.81;100660.88;4973239;28;20116;-79
2021/04/21 08:40:44;;;;;;;11.73;4.65;;;;;;;14.40;44.29;100652.59;4986871;28;20046;-79
2021/04/21 08:43:14;;;;;;;5.00;4.25;;;;;;;14.54;47.78;100660.94;4988453;28;20121;-80
2021/04/21 08:45:40;;;;;;;11.80;5.22;;;;;;;14.92;43.47;100663.97;4985367;28;20049;-80
2021/04/21 08:48:07;;;;;;;6.28;4.13;;;;;;;15.12;45.47;100661.38;4956316;28;20100;-79
2021/04/21 08:50:37;;;;;;;7.35;4.63;;;;;;;15.34;44.48;100663.22;4988360;28;20042;-79
2021/04/21 08:53:06;;;;;;;6.45;4.85;;;;;;;15.61;43.48;100664.78;4971577;28;20649;-79
2021/04/21 08:55:33;;;;;;;7.82;5.07;;;;;;;15.77;43.03;100657.03;4968921;28;20047;-80
2021/04/21 08:57:59;;;;;;;8.27;5.85;;;;;;;15.89;43.51;100659.19;4971631;28;20073;-79
2021/04/21 09:00:26;;;;;;;10.13;5.80;;;;;;;15.92;40.08;100653.72;4967167;28;20057;-80
2021/04/21 09:02:52;;;;;;;7.40;5.10;;;;;;;16.17;42.93;100656.19;4965793;28;20049;-79
2021/04/21 09:05:20;;;;;;;9.02;6.22;;;;;;;16.52;40.68;100659.94;4954180;28;20621;-79
2021/04/21 09:07:47;;;;;;;7.70;5.43;;;;;;;16.73;42.59;100655.50;4967429;28;20046;-79
2021/04/21 09:10:17;;;;;;;10.88;6.32;;;;;;;16.84;37.14;100653.19;4970146;28;20129;-79
2021/04/21 09:12:43;;;;;;;55.08;9.75;;;;;;;16.92;39.76;100651.97;4971158;28;20042;-79
2021/04/21 09:15:11;;;;;;;9.70;6.82;;;;;;;17.07;37.81;100657.47;4987871;28;20046;-79
2021/04/21 09:17:46;;;;;;;7.80;5.95;;;;;;;17.29;39.85;100653.75;4987350;28;20038;-79
2021/04/21 09:20:17;;;;;;;11.30;6.75;;;;;;;17.05;36.35;100658.44;4985880;28;20047;-78
2021/04/21 09:23:10;;;;;;;11.90;5.90;;;;;;;17.17;37.55;100658.75;4988145;28;20069;-79
2021/04/21 09:25:39;;;;;;;11.45;6.10;;;;;;;16.85;38.66;100654.03;4990013;28;20097;-81
2021/04/21 09:28:06;;;;;;;7.13;5.15;;;;;;;17.03;39.40;100649.66;4972341;28;20038;-80
2021/04/21 09:30:35;;;;;;;9.48;6.05;;;;;;;17.15;35.89;100641.94;4972236;28;20047;-80
2021/04/21 09:33:03;;;;;;;10.98;5.45;;;;;;;17.28;38.64;100642.19;4981949;28;20038;-81
2021/04/21 09:35:33;;;;;;;6.78;5.55;;;;;;;17.65;37.99;100648.38;4969616;28;20070;-81
2021/04/21 09:38:05;;;;;;;10.38;6.50;;;;;;;17.65;35.56;100635.88;4941869;28;20054;-81
2021/04/21 09:40:36;;;;;;;7.15;5.43;;;;;;;17.91;39.18;100636.44;4982678;28;20062;-79
2021/04/21 09:43:05;;;;;;;7.75;5.55;;;;;;;18.07;35.23;100637.34;4973892;28;20048;-79
2021/04/21 09:45:43;;;;;;;10.05;6.18;;;;;;;18.05;35.77;100627.69;4972384;28;20141;-80
2021/04/21 09:48:18;;;;;;;7.38;5.35;;;;;;;18.38;36.45;100627.72;4974634;28;20045;-80
2021/04/21 09:51:03;;;;;;;7.97;5.75;;;;;;;18.69;36.68;100624.31;4979242;28;20057;-80
2021/04/21 09:53:35;;;;;;;9.40;6.13;;;;;;;19.05;37.65;100624.06;5002117;28;20506;-80
2021/04/21 09:56:10;;;;;;;8.20;5.70;;;;;;;19.17;36.45;100617.16;4974048;28;20038;-81
2021/04/21 09:58:40;;;;;;;8.45;6.38;;;;;;;17.81;34.91;100619.13;4968902;28;20039;-82
2021/04/21 10:01:24;;;;;;;6.53;4.47;;;;;;;17.79;37.93;100623.69;4989848;28;20046;-81
2021/04/21 10:04:06;;;;;;;9.35;7.75;;;;;;;17.67;37.77;100620.69;4990548;28;20073;-80
2021/04/21 10:06:36;;;;;;;8.05;4.43;;;;;;;17.54;35.05;100624.88;4974928;28;20038;-82
2021/04/21 10:09:03;;;;;;;9.15;7.03;;;;;;;17.43;36.39;100625.44;4991501;28;20054;-80
2021/04/21 10:11:29;;;;;;;7.03;4.88;;;;;;;16.91;35.51;100616.41;4970447;28;20074;-81
2021/04/21 10:13:58;;;;;;;25.95;17.80;;;;;;;15.88;35.71;100624.59;4987496;28;20042;-80
2021/04/21 10:16:25;;;;;;;8.50;6.30;;;;;;;16.26;38.11;100622.94;4972898;28;20034;-80
2021/04/21 10:18:52;;;;;;;7.90;5.75;;;;;;;16.72;38.20;100619.06;4983545;28;20763;-79
2021/04/21 10:21:19;;;;;;;7.45;4.50;;;;;;;17.38;35.92;100621.25;4959283;28;20056;-79
2021/04/21 10:23:47;;;;;;;6.82;4.70;;;;;;;17.90;35.84;100610.63;4979319;28;20089;-79
2021/04/21 10:26:15;;;;;;;8.68;5.13;;;;;;;18.36;34.14;100601.06;4978453;28;20042;-80
2021/04/21 10:28:44;;;;;;;11.65;4.82;;;;;;;18.29;34.24;100602.34;4994420;28;20045;-80
2021/04/21 10:31:14;;;;;;;9.07;5.05;;;;;;;17.32;32.57;100608.19;4973763;28;20046;-81
2021/04/21 10:33:41;;;;;;;6.38;4.45;;;;;;;16.78;33.82;100613.44;4992995;28;20109;-80
2021/04/21 10:36:08;;;;;;;5.95;4.32;;;;;;;16.52;34.55;100611.94;4978865;28;20046;-80
2021/04/21 10:38:34;;;;;;;5.05;3.90;;;;;;;16.15;36.36;100611.88;4989165;28;20592;-80
2021/04/21 10:41:27;;;;;;;6.88;4.28;;;;;;;16.25;36.25;100606.06;4977616;28;20046;-79
2021/04/21 10:44:14;;;;;;;6.88;4.18;;;;;;;16.58;35.39;100598.34;4972334;28;20054;-81
2021/04/21 10:46:59;;;;;;;4.65;3.40;;;;;;;17.18;36.27;100606.22;4993940;28;20053;-81
2021/04/21 10:49:40;;;;;;;7.30;4.30;;;;;;;17.28;34.60;100606.63;4991763;28;20112;-81
2021/04/21 10:52:27;;;;;;;116.55;13.95;;;;;;;17.02;36.87;100605.22;4986904;28;20093;-79
2021/04/21 10:55:02;;;;;;;6.95;4.65;;;;;;;17.03;37.81;100613.16;4974469;28;20499;-80
2021/04/21 10:57:31;;;;;;;6.32;3.90;;;;;;;16.93;36.42;100611.00;4979497;28;20042;-80
2021/04/21 11:00:17;;;;;;;6.22;4.10;;;;;;;16.86;36.16;100615.75;4979540;28;20042;-81
2021/04/21 11:02:47;;;;;;;6.32;4.70;;;;;;;16.98;35.76;100612.50;4990348;28;20649;-80
2021/04/21 11:05:20;;;;;;;5.30;4.18;;;;;;;16.85;37.34;100614.88;4977081;28;20685;-82
2021/04/21 11:08:08;;;;;;;8.00;4.78;;;;;;;16.85;36.61;100612.22;4960030;28;20057;-83
2021/04/21 11:10:54;;;;;;;6.70;5.38;;;;;;;16.76;37.05;100626.00;4975188;28;20054;-82
2021/04/21 11:13:24;;;;;;;7.07;4.72;;;;;;;16.39;37.98;100620.56;4994316;28;20050;-81
2021/04/21 11:15:51;;;;;;;6.68;5.13;;;;;;;16.28;38.81;100613.91;4994467;28;20061;-82
2021/04/21 11:18:26;;;;;;;7.55;6.03;;;;;;;15.82;39.39;100619.53;4982805;28;20045;-81
2021/04/21 11:20:53;;;;;;;6.75;5.43;;;;;;;15.86;39.73;100613.13;4955700;28;20050;-81
2021/04/21 11:24:05;;;;;;;8.38;5.13;;;;;;;15.75;37.99;100606.47;4982189;28;21534;-80
2021/04/21 11:26:38;;;;;;;29.83;7.50;;;;;;;15.80;39.96;100600.94;5000974;28;20042;-81
2021/04/21 11:29:24;;;;;;;14.68;6.43;;;;;;;15.91;39.29;100600.50;4956205;28;20053;-81
2021/04/21 11:31:51;;;;;;;7.55;5.15;;;;;;;16.14;38.61;100604.78;5004117;28;20038;-81
2021/04/21 11:34:28;;;;;;;8.77;4.85;;;;;;;16.23;36.52;100601.75;4991578;28;20050;-80
2021/04/21 11:36:58;;;;;;;6.30;4.45;;;;;;;15.99;39.05;100612.56;4989919;28;20043;-80
2021/04/21 11:39:39;;;;;;;8.52;5.07;;;;;;;15.97;35.27;100610.88;4973440;28;20046;-83
2021/04/21 11:42:34;;;;;;;7.03;4.30;;;;;;;16.01;35.76;100617.81;4971926;28;20161;-82
2021/04/21 11:45:18;;;;;;;6.28;4.95;;;;;;;16.32;37.14;100609.34;4974276;28;20113;-83
2021/04/21 11:48:04;;;;;;;7.47;4.78;;;;;;;16.64;34.56;100599.84;4991767;28;20050;-83
2021/04/21 11:50:38;;;;;;;7.57;4.40;;;;;;;17.06;36.58;100588.97;4991365;28;20052;-82
2021/04/21 11:53:16;;;;;;;5.93;4.30;;;;;;;17.63;35.34;100584.34;4975779;28;20034;-83
2021/04/21 11:58:32;;;;;;;7.55;4.25;;;;;;;17.29;33.17;100598.53;5007099;28;20043;-82
2021/04/21 12:01:00;;;;;;;6.10;3.88;;;;;;;17.03;33.30;100598.94;4990932;28;20061;-81